METAR Data
IDs: Format: Raw Decoded Include TAF

Data at: 1233 UTC 16 Jul 2019

KTCC 161153Z AUTO 25004KT 10SM CLR 19/17 A3002 RMK AO2 SLP093 70020 T01940172 10256 20194 53008
KTCC 161053Z AUTO 00000KT 10SM CLR 21/17 A3001 RMK AO2 SLP089 T02060172
KTCC 160953Z AUTO 35006KT 10SM CLR 21/17 A2999 RMK AO2 SLP084 T02060172
KTCC 160853Z AUTO 00000KT 10SM CLR 22/17 A2999 RMK AO2 SLP081 T02220167 52001
KTCC 160753Z AUTO 23007KT 10SM CLR 23/17 A2998 RMK AO2 SLP078 T02330167
KTCC 160653Z AUTO 21012KT 10SM CLR 26/16 A3000 RMK AO2 SLP082 T02560156 403720211
KTCC 160553Z AUTO 20019KT 10SM SCT060 BKN095 24/16 A2999 RMK AO2 RAE44 SLP083 P0003 60020 T02390161 10367 20222 58013
KTCC 160453Z AUTO 26013KT 10SM -RA FEW055 BKN080 OVC100 23/17 A3009 RMK AO2 PK WND 24035/0411 WSHFT 0358 TSE08 SLP118 P0006 T02330167
KTCC 160420Z AUTO 24017G35KT 6SM -RA SCT047 SCT075 OVC110 24/16 A3007 RMK AO2 PK WND 24035/0411 WSHFT 0358 LTG DSNT S TSE08 P0005 T02390161
KTCC 160412Z AUTO 26021G35KT 4SM VCTS +RA FEW047 OVC110 24/16 A3008 RMK AO2 PK WND 24035/0411 WSHFT 0358 LTG DSNT SW AND W TSE08 P0005 T02390161
KTCC 160353Z AUTO 32007KT 10SM -TSRA FEW046 FEW080 BKN110 23/18 A3007 RMK AO2 PK WND 34027/0258 LTG DSNT W RAB09 SLP116 P0011 T02280183
KTCC 160251Z AUTO 33024G33KT 10SM TS OVC100 27/15 A3003 RMK AO2 PK WND 32034/0239 WSHFT 0231 LTG DSNT W AND NW TSB50 SLP102 T02670150 53031
KTCC 160250Z AUTO 32025G33KT 10SM TS OVC100 27/15 A3003 RMK AO2 PK WND 32034/0239 WSHFT 0231 LTG DSNT W AND NW TSB50
KTCC 160235Z AUTO 33024G29KT 10SM VCTS OVC100 31/13 A3000 RMK AO2 PK WND 34029/0235 LTG DSNT W AND NW PRESRR T03110128
KTCC 160153Z AUTO 17007KT 10SM BKN110 32/12 A2994 RMK AO2 LTG DSNT W AND NW SLP064 T03170117
KTCC 160053Z AUTO 20010KT 10SM SCT110 35/11 A2994 RMK AO2 SLP062 T03500111
KTCC 152353Z AUTO 15011KT 10SM CLR 37/12 A2993 RMK AO2 SLP059 T03670117 10372 20328 56018
KTCC 152253Z AUTO 20012G21KT 10SM CLR 37/12 A2994 RMK AO2 SLP064 T03670117
KTCC 152153Z AUTO 15007KT 120V190 10SM CLR 36/11 A2996 RMK AO2 SLP069 T03610111
KTCC 152053Z AUTO 21012KT 10SM CLR 37/12 A2999 RMK AO2 SLP077 T03670122 58018
KTCC 151953Z AUTO 24008G18KT 200V280 10SM CLR 35/12 A3001 RMK AO2 SLP085 T03500122
KTCC 151853Z AUTO 20011G15KT 10SM CLR 34/12 A3003 RMK AO2 SLP094 T03440122
KTCC 151753Z AUTO VRB05G16KT 10SM CLR 33/13 A3005 RMK AO2 SLP102 T03280128 10333 20222 58018
KTCC 151653Z AUTO 20010KT 10SM CLR 31/13 A3007 RMK AO2 SLP111 T03060128
KTCC 151553Z AUTO 23005KT 10SM CLR 28/14 A3009 RMK AO2 SLP119 T02780139
KTCC 151453Z AUTO 28005KT 10SM CLR 26/15 A3010 RMK AO2 SLP128 T02560150 51012
KTCC 151353Z AUTO 35003KT 10SM CLR 25/15 A3010 RMK AO2 SLP123 T02500150
KTCC 151253Z AUTO 36004KT 10SM BKN100 23/14 A3009 RMK AO2 SLP120 T02280144
KTCC 151153Z AUTO 09005KT 10SM FEW080 FEW095 SCT110 22/14 A3007 RMK AO2 SLP107 T02220144 10272 20211 56014
KTCC 151053Z AUTO 17007KT 10SM CLR 22/14 A3007 RMK AO2 SLP109 T02170144
KTCC 150953Z AUTO 23008KT 10SM CLR 22/14 A3009 RMK AO2 SLP116 T02220144
KTCC 150853Z AUTO 28008KT 10SM FEW100 24/14 A3011 RMK AO2 SLP122 T02390139 50000
KTCC 150753Z AUTO 32015KT 10SM FEW090 FEW120 26/13 A3013 RMK AO2 SLP127 T02610128
KTCC 150653Z AUTO 30015KT 10SM FEW100 24/11 A3015 RMK AO2 PRESRR SLP137 T02390111 403670172
KTCC 150553Z AUTO 25004KT 10SM CLR 24/11 A3011 RMK AO2 SLP126 T02390106 10350 20239 53017
KTCC 150453Z AUTO 00000KT 10SM CLR 24/11 A3008 RMK AO2 SLP116 T02440106
KTCC 150353Z AUTO 16007KT 10SM CLR 26/11 A3007 RMK AO2 SLP113 T02560111
KTCC 150253Z AUTO 16008KT 10SM CLR 27/09 A3006 RMK AO2 SLP109 T02670089 53008
KTCC 150153Z AUTO 14008KT 10SM CLR 30/09 A3004 RMK AO2 SLP104 T03000089
KTCC 150053Z AUTO 13013KT 10SM CLR 33/11 A3003 RMK AO2 SLP101 T03280106